Time;durP1;ratioP1;P1;durP2;ratioP2;P2;SDS_P1;SDS_P2;PMS_P1;PMS_P2;Temp;Humidity;BMP_temperature;BMP_pressure;BME280_temperature;BME280_humidity;BME280_pressure;Samples;Min_cycle;Max_cycle;Signal;HPM_P1;HPM_P2
2021/12/06 00:01:18;;;;;;;21.45;9.52;;;3.60;99.90;;;;;;5074704;28;20442;-43
2021/12/06 00:03:57;;;;;;;18.92;9.15;;;3.60;99.90;;;;;;5074218;28;20036;-41
2021/12/06 00:06:26;;;;;;;25.10;11.35;;;3.60;99.90;;;;;;5086048;28;20023;-42
2021/12/06 00:08:52;;;;;;;25.70;9.93;;;3.60;99.90;;;;;;5094276;28;20028;-41
2021/12/06 00:11:17;;;;;;;28.00;10.20;;;3.50;99.90;;;;;;5094872;28;20020;-42
2021/12/06 00:13:46;;;;;;;31.23;11.20;;;3.60;99.90;;;;;;5094539;28;20032;-42
2021/12/06 00:16:17;;;;;;;34.60;10.95;;;3.60;99.90;;;;;;5092342;28;20051;-43
2021/12/06 00:18:43;;;;;;;27.20;10.77;;;3.60;99.90;;;;;;5094688;28;20024;-42
2021/12/06 00:21:09;;;;;;;26.80;10.77;;;3.60;99.90;;;;;;5094660;28;20043;-42
2021/12/06 00:23:35;;;;;;;27.67;11.35;;;3.60;99.90;;;;;;5093837;28;20032;-42
2021/12/06 00:26:01;;;;;;;25.27;9.88;;;3.60;99.90;;;;;;5083235;28;20455;-42
2021/12/06 00:28:28;;;;;;;21.23;9.18;;;3.60;99.90;;;;;;5074124;28;20345;-42
2021/12/06 00:30:54;;;;;;;24.17;9.40;;;3.60;99.90;;;;;;5073592;28;20028;-42
2021/12/06 00:33:20;;;;;;;24.30;9.85;;;3.60;99.90;;;;;;5087222;28;20016;-43
2021/12/06 00:35:46;;;;;;;24.60;10.07;;;3.60;99.90;;;;;;5094379;28;20020;-43
2021/12/06 00:38:12;;;;;;;23.67;8.93;;;3.60;99.90;;;;;;5093525;28;20020;-44
2021/12/06 00:40:40;;;;;;;24.75;10.40;;;3.60;99.90;;;;;;5089897;28;20472;-43
2021/12/06 00:43:06;;;;;;;24.65;9.07;;;3.60;99.90;;;;;;5073915;28;20393;-43
2021/12/06 00:45:32;;;;;;;22.92;9.88;;;3.60;99.90;;;;;;5073291;28;20028;-42
2021/12/06 00:47:58;;;;;;;23.42;9.80;;;3.70;99.90;;;;;;5073882;28;20097;-42
2021/12/06 00:50:26;;;;;;;26.52;11.40;;;3.70;99.90;;;;;;5074609;28;20028;-45
2021/12/06 00:52:53;;;;;;;22.27;8.80;;;3.70;99.90;;;;;;5093259;28;20024;-43
2021/12/06 00:55:19;;;;;;;28.02;10.65;;;3.70;99.90;;;;;;5093585;28;20049;-43
2021/12/06 00:57:46;;;;;;;28.30;11.30;;;3.70;99.90;;;;;;5093356;28;20060;-42
2021/12/06 01:00:18;;;;;;;24.15;9.98;;;3.70;99.90;;;;;;5094015;28;20053;-43
2021/12/06 01:02:44;;;;;;;25.63;10.13;;;3.70;99.90;;;;;;5073256;28;20041;-42
2021/12/06 01:05:11;;;;;;;23.88;10.18;;;3.70;99.90;;;;;;5073142;28;20047;-42
2021/12/06 01:07:37;;;;;;;21.77;9.25;;;3.70;99.90;;;;;;5073511;28;20025;-42
2021/12/06 01:10:06;;;;;;;22.65;9.45;;;3.70;99.90;;;;;;5073450;28;20537;-42
2021/12/06 01:12:32;;;;;;;22.13;9.75;;;3.60;99.90;;;;;;5073838;28;20111;-42
2021/12/06 01:14:57;;;;;;;23.73;8.90;;;3.60;99.90;;;;;;5073271;28;20099;-42
2021/12/06 01:17:23;;;;;;;25.00;10.80;;;3.60;99.90;;;;;;5073418;28;20021;-42
2021/12/06 01:19:49;;;;;;;23.33;10.23;;;3.70;99.90;;;;;;5072677;28;20495;-43
2021/12/06 01:22:28;;;;;;;26.15;10.02;;;3.70;99.90;;;;;;5089042;28;20052;-44
2021/12/06 01:25:02;;;;;;;19.92;9.65;;;3.70;99.90;;;;;;5093374;28;20036;-42
2021/12/06 01:33:15;;;;;;;26.33;9.50;;;3.70;99.90;;;;;;5074102;28;20036;-47
2021/12/06 01:41:02;;;;;;;30.08;10.55;;;3.70;99.90;;;;;;5076437;28;20387;-43
2021/12/06 01:43:27;;;;;;;26.77;10.27;;;3.70;99.90;;;;;;5093098;28;20066;-44
2021/12/06 01:45:53;;;;;;;23.23;10.07;;;3.70;99.90;;;;;;5093073;28;20020;-42
2021/12/06 01:48:18;;;;;;;26.65;10.82;;;3.70;99.90;;;;;;5092719;28;20123;-43
2021/12/06 01:50:44;;;;;;;28.45;12.00;;;3.70;99.90;;;;;;5092204;28;20012;-42
2021/12/06 01:53:10;;;;;;;25.88;9.40;;;3.70;99.90;;;;;;5073019;28;20081;-42
2021/12/06 01:55:38;;;;;;;31.25;12.20;;;3.70;99.90;;;;;;5072084;28;20118;-42
2021/12/06 01:58:06;;;;;;;25.98;10.63;;;3.70;99.90;;;;;;5072840;28;20028;-42
2021/12/06 02:00:45;;;;;;;27.33;10.43;;;3.70;99.90;;;;;;5072814;28;20104;-42
2021/12/06 02:03:12;;;;;;;28.05;10.50;;;3.80;99.90;;;;;;5072087;28;20704;-42
2021/12/06 02:05:39;;;;;;;29.77;10.80;;;3.70;99.90;;;;;;5072814;28;20024;-44
2021/12/06 02:08:05;;;;;;;31.38;11.68;;;3.70;99.90;;;;;;5072160;28;20109;-42
2021/12/06 02:10:32;;;;;;;25.63;10.38;;;3.70;99.90;;;;;;5072730;28;20364;-42
2021/12/06 02:12:57;;;;;;;27.33;10.75;;;3.70;99.90;;;;;;5089935;28;20094;-42
2021/12/06 02:18:06;;;;;;;25.83;10.60;;;3.70;99.90;;;;;;5092957;28;20380;-42
2021/12/06 02:20:40;;;;;;;26.10;11.13;;;3.70;99.90;;;;;;5092928;28;20032;-42
2021/12/06 02:23:06;;;;;;;25.52;12.45;;;3.70;99.90;;;;;;5090316;28;20082;-42
2021/12/06 02:25:32;;;;;;;26.98;10.85;;;3.70;99.90;;;;;;5092781;28;20056;-42
2021/12/06 02:27:57;;;;;;;33.25;10.93;;;3.80;99.90;;;;;;5092807;28;20039;-42
2021/12/06 02:30:23;;;;;;;33.15;11.15;;;3.70;99.90;;;;;;5092244;28;20024;-41
2021/12/06 02:32:50;;;;;;;32.42;12.48;;;3.70;99.90;;;;;;5090289;28;20103;-44
2021/12/06 02:35:20;;;;;;;36.47;11.60;;;3.70;99.90;;;;;;5092388;28;20115;-42
2021/12/06 02:37:46;;;;;;;36.22;12.18;;;3.70;99.90;;;;;;5091942;28;20413;-43
2021/12/06 02:40:24;;;;;;;31.52;12.80;;;3.70;99.90;;;;;;5092672;28;20518;-42
2021/12/06 02:42:50;;;;;;;32.35;12.80;;;3.70;99.90;;;;;;5076742;28;20060;-42
2021/12/06 02:45:19;;;;;;;27.40;12.43;;;3.70;99.90;;;;;;5072209;28;20020;-42
2021/12/06 02:47:52;;;;;;;31.02;12.68;;;3.70;99.90;;;;;;5072317;28;20509;-42
2021/12/06 02:50:19;;;;;;;33.05;11.48;;;3.70;99.90;;;;;;5072022;28;20056;-43
2021/12/06 02:52:45;;;;;;;34.15;12.63;;;3.70;99.90;;;;;;5086406;28;20463;-44
2021/12/06 02:55:28;;;;;;;29.83;11.82;;;3.70;99.90;;;;;;5092235;28;20052;-42
2021/12/06 02:57:57;;;;;;;27.48;11.07;;;3.70;99.90;;;;;;5091937;28;20032;-44
2021/12/06 03:00:24;;;;;;;29.30;11.40;;;3.60;99.90;;;;;;5092482;28;20021;-42
2021/12/06 03:02:49;;;;;;;31.20;12.40;;;3.70;99.90;;;;;;5080201;28;20047;-43
2021/12/06 03:05:15;;;;;;;30.45;11.65;;;3.70;99.90;;;;;;5075405;28;20020;-42
2021/12/06 03:07:41;;;;;;;35.17;11.90;;;3.70;99.90;;;;;;5075774;28;20024;-42
2021/12/06 03:10:08;;;;;;;32.97;12.45;;;3.70;99.90;;;;;;5075727;28;20021;-42
2021/12/06 03:12:34;;;;;;;44.85;14.65;;;3.70;99.90;;;;;;5076078;28;20012;-42
2021/12/06 03:15:01;;;;;;;33.88;12.65;;;3.70;99.90;;;;;;5075449;28;20028;-42
2021/12/06 03:17:28;;;;;;;30.45;11.95;;;3.70;99.90;;;;;;5075650;28;20059;-43
2021/12/06 03:19:55;;;;;;;34.47;13.10;;;3.70;99.90;;;;;;5057070;28;20426;-42
2021/12/06 03:22:20;;;;;;;29.77;13.18;;;3.70;99.90;;;;;;5082974;28;20032;-42
2021/12/06 03:24:46;;;;;;;36.42;12.25;;;3.70;99.90;;;;;;5095703;28;20024;-43
2021/12/06 03:27:14;;;;;;;41.10;12.88;;;3.70;99.90;;;;;;5095140;28;20097;-42
2021/12/06 03:29:40;;;;;;;30.83;12.20;;;3.70;99.90;;;;;;5095552;28;20145;-42
2021/12/06 03:32:07;;;;;;;38.30;14.18;;;3.70;99.90;;;;;;5090428;28;20448;-42
2021/12/06 03:34:33;;;;;;;31.13;12.98;;;3.70;99.90;;;;;;5074684;28;20021;-42
2021/12/06 03:37:01;;;;;;;38.25;13.20;;;3.70;99.90;;;;;;5075339;28;20051;-44
2021/12/06 03:39:31;;;;;;;41.20;14.43;;;3.70;99.90;;;;;;5074750;28;20024;-43
2021/12/06 03:42:00;;;;;;;32.20;11.35;;;3.80;99.90;;;;;;5091336;28;20028;-42
2021/12/06 03:44:26;;;;;;;32.90;12.20;;;3.80;99.90;;;;;;5095426;28;20016;-43
2021/12/06 03:46:56;;;;;;;36.53;14.15;;;3.70;99.90;;;;;;5094679;28;20035;-43
2021/12/06 03:49:22;;;;;;;33.05;12.77;;;3.70;99.90;;;;;;5095282;28;20031;-42
2021/12/06 03:51:49;;;;;;;37.05;13.43;;;3.70;99.90;;;;;;5080330;28;20476;-42
2021/12/06 03:54:18;;;;;;;40.95;14.60;;;3.70;99.90;;;;;;5074377;28;20020;-42
2021/12/06 03:56:44;;;;;;;36.38;11.63;;;3.80;99.90;;;;;;5074499;28;20407;-43
2021/12/06 03:59:11;;;;;;;39.58;12.65;;;3.70;99.90;;;;;;5074783;28;20411;-42
2021/12/06 04:01:38;;;;;;;41.38;11.85;;;3.80;99.90;;;;;;5086011;28;20609;-43
2021/12/06 04:04:06;;;;;;;33.47;12.30;;;3.80;99.90;;;;;;5094911;28;20028;-44
2021/12/06 04:06:33;;;;;;;32.70;10.60;;;3.80;99.90;;;;;;5094922;28;20102;-42
2021/12/06 04:08:59;;;;;;;32.88;12.77;;;3.80;99.90;;;;;;5094360;28;20026;-41
2021/12/06 04:11:25;;;;;;;32.72;12.20;;;3.80;99.90;;;;;;5093036;28;20107;-43
2021/12/06 04:13:50;;;;;;;39.45;13.05;;;3.80;99.90;;;;;;5094724;28;20450;-43
2021/12/06 04:16:16;;;;;;;31.88;12.23;;;3.90;99.90;;;;;;5094253;28;20111;-44
2021/12/06 04:18:42;;;;;;;30.05;11.93;;;3.90;99.90;;;;;;5094563;28;20020;-43
2021/12/06 04:21:09;;;;;;;29.98;12.10;;;3.90;99.90;;;;;;5086400;28;20466;-42
2021/12/06 04:23:38;;;;;;;30.80;12.00;;;3.90;99.90;;;;;;5073712;28;20085;-42
2021/12/06 04:26:05;;;;;;;31.67;11.63;;;4.00;99.90;;;;;;5074321;28;20020;-43
2021/12/06 04:28:33;;;;;;;30.23;11.77;;;4.00;99.90;;;;;;5074308;28;20016;-43
2021/12/06 04:30:59;;;;;;;33.63;11.18;;;4.00;99.90;;;;;;5078755;28;20430;-42
2021/12/06 04:33:25;;;;;;;29.65;11.57;;;4.00;99.90;;;;;;5094416;28;20055;-42
2021/12/06 04:35:50;;;;;;;27.85;10.60;;;4.00;99.90;;;;;;5093869;28;20024;-42
2021/12/06 04:38:17;;;;;;;32.88;10.90;;;4.00;99.90;;;;;;5094171;28;20387;-42
2021/12/06 04:40:43;;;;;;;28.85;12.13;;;4.00;99.90;;;;;;5090879;28;20063;-43
2021/12/06 04:43:09;;;;;;;33.03;11.55;;;4.00;99.90;;;;;;5073508;28;20029;-42
2021/12/06 04:45:35;;;;;;;33.97;12.07;;;4.10;99.90;;;;;;5073830;28;20028;-42
2021/12/06 04:48:01;;;;;;;30.38;12.50;;;4.10;99.90;;;;;;5073842;28;20032;-43
2021/12/06 04:50:31;;;;;;;32.38;12.70;;;4.00;99.90;;;;;;5087669;28;20077;-42
2021/12/06 04:53:07;;;;;;;33.72;12.77;;;4.10;99.90;;;;;;5093930;28;20035;-43
2021/12/06 04:55:40;;;;;;;31.77;12.32;;;4.00;99.90;;;;;;5093720;28;20056;-42
2021/12/06 04:58:07;;;;;;;27.75;10.82;;;4.10;99.90;;;;;;5093498;28;20047;-42
2021/12/06 05:00:40;;;;;;;28.77;11.07;;;4.00;99.90;;;;;;5092194;28;20020;-43
2021/12/06 05:03:07;;;;;;;33.58;11.45;;;4.00;99.90;;;;;;5093900;28;20510;-44
2021/12/06 05:05:40;;;;;;;30.90;11.82;;;4.00;99.90;;;;;;5093173;28;20027;-42
2021/12/06 05:08:28;;;;;;;34.35;11.88;;;4.00;99.90;;;;;;5093849;28;20032;-43
2021/12/06 05:10:55;;;;;;;37.03;11.35;;;3.90;99.90;;;;;;5074787;28;20020;-43
2021/12/06 05:13:22;;;;;;;35.72;13.55;;;4.00;99.90;;;;;;5073326;28;20039;-43
2021/12/06 05:15:47;;;;;;;36.28;12.65;;;4.10;99.90;;;;;;5073375;28;20025;-43
2021/12/06 05:18:13;;;;;;;32.63;12.45;;;4.00;99.90;;;;;;5072888;28;20425;-43
2021/12/06 05:20:39;;;;;;;29.95;13.48;;;4.00;99.90;;;;;;5074368;28;20020;-43
2021/12/06 05:23:07;;;;;;;31.30;11.45;;;4.10;99.90;;;;;;5073144;28;20123;-43
2021/12/06 05:25:33;;;;;;;33.42;12.18;;;4.10;99.90;;;;;;5072353;28;20024;-42
2021/12/06 05:27:59;;;;;;;28.63;10.98;;;4.10;99.90;;;;;;5073211;28;20357;-43
2021/12/06 05:30:27;;;;;;;33.75;12.50;;;4.10;99.90;;;;;;5086425;28;20046;-44
2021/12/06 05:32:54;;;;;;;37.22;12.80;;;4.10;99.90;;;;;;5092802;28;20024;-42
2021/12/06 05:35:20;;;;;;;31.67;11.55;;;4.10;99.90;;;;;;5093380;28;20025;-42
2021/12/06 05:37:48;;;;;;;33.67;12.10;;;4.10;99.90;;;;;;5093281;28;20430;-43
2021/12/06 05:40:22;;;;;;;35.70;12.25;;;4.10;99.90;;;;;;5081719;28;20023;-43
2021/12/06 05:42:48;;;;;;;31.70;11.55;;;4.10;99.90;;;;;;5072785;28;20024;-43
2021/12/06 05:45:17;;;;;;;40.55;12.30;;;4.10;99.90;;;;;;5073081;28;20027;-43
2021/12/06 05:47:43;;;;;;;29.15;11.50;;;4.10;99.90;;;;;;5082434;28;20123;-43
2021/12/06 05:50:09;;;;;;;36.53;13.57;;;4.10;99.90;;;;;;5092895;28;20539;-45
2021/12/06 05:52:35;;;;;;;28.05;10.60;;;4.10;99.90;;;;;;5093069;28;20107;-42
2021/12/06 05:55:03;;;;;;;34.17;11.00;;;4.10;99.90;;;;;;5092323;28;20135;-42
2021/12/06 05:57:29;;;;;;;29.27;11.88;;;4.10;99.90;;;;;;5084617;28;20078;-43
2021/12/06 05:59:55;;;;;;;34.80;11.80;;;4.10;99.90;;;;;;5072815;28;20020;-42
2021/12/06 06:02:21;;;;;;;29.30;10.68;;;4.10;99.90;;;;;;5072285;28;20055;-42
2021/12/06 06:04:47;;;;;;;33.17;11.02;;;4.10;99.90;;;;;;5072785;28;20029;-43
2021/12/06 06:07:13;;;;;;;32.30;10.70;;;4.10;99.90;;;;;;5077737;28;20021;-42
2021/12/06 06:09:38;;;;;;;31.73;10.93;;;4.10;99.90;;;;;;5092869;28;20016;-42
2021/12/06 06:12:04;;;;;;;26.92;10.95;;;4.10;99.90;;;;;;5091134;28;20063;-42
2021/12/06 06:14:31;;;;;;;28.40;10.98;;;4.10;99.90;;;;;;5092172;28;20085;-42
2021/12/06 06:17:06;;;;;;;30.42;11.07;;;4.10;99.90;;;;;;5092495;28;20117;-42
2021/12/06 06:19:32;;;;;;;33.63;11.82;;;4.00;99.90;;;;;;5092721;28;20515;-43
2021/12/06 06:21:58;;;;;;;30.17;11.02;;;4.10;99.90;;;;;;5086577;28;20020;-42
2021/12/06 06:24:23;;;;;;;26.48;10.38;;;4.10;99.90;;;;;;5072385;28;20072;-42
2021/12/06 06:26:49;;;;;;;31.08;11.25;;;4.10;99.90;;;;;;5072581;28;20017;-42
2021/12/06 06:29:15;;;;;;;37.75;12.90;;;4.00;99.90;;;;;;5072193;28;20021;-43
2021/12/06 06:31:42;;;;;;;27.33;11.70;;;4.00;99.90;;;;;;5074718;28;20111;-44
2021/12/06 06:34:07;;;;;;;27.42;9.60;;;4.00;99.90;;;;;;5092835;28;20024;-42
2021/12/06 06:36:33;;;;;;;29.75;11.77;;;4.00;99.90;;;;;;5092138;28;20378;-42
2021/12/06 06:38:59;;;;;;;29.80;10.57;;;4.00;99.90;;;;;;5096289;28;20082;-42
2021/12/06 06:41:25;;;;;;;35.10;11.48;;;4.00;99.90;;;;;;5096130;28;20028;-43
2021/12/06 06:43:50;;;;;;;39.30;12.57;;;4.00;99.90;;;;;;5094648;28;20402;-42
2021/12/06 06:46:16;;;;;;;35.38;12.75;;;4.00;99.90;;;;;;5084056;28;20037;-42
2021/12/06 06:48:42;;;;;;;38.90;12.35;;;4.00;99.90;;;;;;5076106;28;20471;-42
2021/12/06 06:51:07;;;;;;;32.78;10.82;;;4.00;99.90;;;;;;5075596;28;20024;-43
2021/12/06 06:53:33;;;;;;;37.35;12.40;;;4.00;99.90;;;;;;5093661;28;20035;-45
2021/12/06 06:55:58;;;;;;;32.92;10.82;;;4.00;99.90;;;;;;5096005;28;20079;-42
2021/12/06 06:58:24;;;;;;;33.75;11.20;;;4.00;99.90;;;;;;5095731;28;20074;-43
2021/12/06 07:00:50;;;;;;;31.40;10.90;;;4.00;99.90;;;;;;5096175;28;20020;-42
2021/12/06 07:03:16;;;;;;;35.50;12.32;;;4.00;99.90;;;;;;5081772;28;20128;-42
2021/12/06 07:05:41;;;;;;;35.78;12.15;;;4.10;99.90;;;;;;5074887;28;20028;-43
2021/12/06 07:08:07;;;;;;;32.65;10.60;;;4.10;99.90;;;;;;5075179;28;20032;-42
2021/12/06 07:10:33;;;;;;;21.55;9.15;;;4.10;99.90;;;;;;5074656;28;20056;-43
2021/12/06 07:13:03;;;;;;;26.98;10.18;;;4.10;99.90;;;;;;5076049;28;20027;-43
2021/12/06 07:15:32;;;;;;;32.30;10.77;;;4.00;99.90;;;;;;5074745;28;20372;-44
2021/12/06 07:17:59;;;;;;;21.98;8.82;;;4.00;99.90;;;;;;5094085;28;20509;-43
2021/12/06 07:20:26;;;;;;;29.77;11.23;;;4.00;99.90;;;;;;5093962;28;20510;-42
2021/12/06 07:22:52;;;;;;;33.83;13.77;;;4.00;99.90;;;;;;5093857;28;20111;-44
2021/12/06 07:25:20;;;;;;;32.22;11.60;;;3.90;99.90;;;;;;5094179;28;20020;-43
2021/12/06 07:27:47;;;;;;;30.35;12.50;;;4.00;99.90;;;;;;5095180;28;20115;-43
2021/12/06 07:30:14;;;;;;;28.50;10.52;;;3.90;99.90;;;;;;5094757;28;20024;-43
2021/12/06 07:32:40;;;;;;;31.67;10.65;;;4.00;99.90;;;;;;5090329;28;20028;-43
2021/12/06 07:35:07;;;;;;;30.67;10.70;;;3.90;99.90;;;;;;5074600;28;20016;-46
2021/12/06 07:37:33;;;;;;;25.92;9.43;;;3.90;99.90;;;;;;5087738;28;20063;-44
2021/12/06 07:39:59;;;;;;;31.27;10.85;;;3.80;99.90;;;;;;5093100;28;20035;-43
2021/12/06 07:42:25;;;;;;;33.53;10.80;;;3.80;99.90;;;;;;5091099;28;20087;-43
2021/12/06 07:44:52;;;;;;;28.33;10.20;;;3.80;99.90;;;;;;5090683;28;20481;-44
2021/12/06 07:47:18;;;;;;;26.42;9.35;;;3.90;99.90;;;;;;5093978;28;20024;-42
2021/12/06 07:49:45;;;;;;;35.60;12.82;;;3.90;99.90;;;;;;5094272;28;20028;-44
2021/12/06 07:52:11;;;;;;;28.73;11.63;;;3.90;99.90;;;;;;5094325;28;20034;-42
2021/12/06 07:54:37;;;;;;;26.70;11.25;;;3.80;99.90;;;;;;5085910;28;20024;-43
2021/12/06 07:57:03;;;;;;;23.25;9.38;;;3.70;99.90;;;;;;5074258;28;20063;-44
2021/12/06 07:59:29;;;;;;;37.42;11.68;;;3.80;99.90;;;;;;5083794;28;20024;-43
2021/12/06 08:01:55;;;;;;;29.02;12.55;;;3.80;99.90;;;;;;5093833;28;20081;-42
2021/12/06 08:04:21;;;;;;;34.67;13.02;;;3.80;99.90;;;;;;5094056;28;20107;-45
2021/12/06 08:06:47;;;;;;;32.47;13.10;;;3.80;99.90;;;;;;5093741;28;20100;-43
2021/12/06 08:09:14;;;;;;;37.63;16.50;;;3.80;99.90;;;;;;5094059;28;20032;-41
2021/12/06 08:11:41;;;;;;;41.22;17.77;;;3.90;99.90;;;;;;5084036;28;20069;-44
2021/12/06 08:14:07;;;;;;;44.03;19.17;;;3.90;99.90;;;;;;5073380;28;20070;-44
2021/12/06 08:16:39;;;;;;;40.47;20.77;;;3.90;99.90;;;;;;5073886;28;20143;-43
2021/12/06 08:19:06;;;;;;;23.48;8.55;;;3.90;99.90;;;;;;5073816;28;20060;-44
2021/12/06 08:21:32;;;;;;;25.92;8.75;;;3.90;99.90;;;;;;5073280;28;20472;-43
2021/12/06 08:23:58;;;;;;;24.75;9.18;;;3.80;99.90;;;;;;5073696;28;20102;-44
2021/12/06 08:26:27;;;;;;;28.42;8.77;;;3.80;99.90;;;;;;5073470;28;20091;-43
2021/12/06 08:28:54;;;;;;;20.35;8.85;;;3.90;99.90;;;;;;5078110;28;20043;-42
2021/12/06 08:31:22;;;;;;;21.10;8.77;;;3.90;99.90;;;;;;5083460;28;20044;-43
2021/12/06 08:33:49;;;;;;;23.67;8.52;;;3.90;99.90;;;;;;5093650;28;20363;-42
2021/12/06 08:36:16;;;;;;;21.02;9.07;;;3.80;99.90;;;;;;5085811;28;20081;-44
2021/12/06 08:38:41;;;;;;;22.02;8.55;;;3.80;99.90;;;;;;5089065;28;20024;-43
2021/12/06 08:41:11;;;;;;;21.40;9.20;;;3.80;99.90;;;;;;5077427;28;20035;-44
2021/12/06 08:43:38;;;;;;;26.10;9.40;;;3.70;99.90;;;;;;5075655;28;20054;-43
2021/12/06 08:46:12;;;;;;;34.17;10.70;;;3.70;99.90;;;;;;5093553;28;20082;-42
2021/12/06 08:48:39;;;;;;;24.95;9.07;;;3.80;99.90;;;;;;5093643;28;20488;-43
2021/12/06 08:51:13;;;;;;;19.08;8.00;;;3.80;99.90;;;;;;5092736;28;20020;-44
2021/12/06 08:53:39;;;;;;;25.27;8.05;;;3.80;99.90;;;;;;5092262;28;20024;-43
2021/12/06 08:56:05;;;;;;;24.27;9.57;;;3.80;99.90;;;;;;5087567;28;20052;-43
2021/12/06 08:58:30;;;;;;;36.20;13.05;;;3.80;99.90;;;;;;5091966;28;20028;-42
2021/12/06 09:00:56;;;;;;;31.75;15.27;;;3.80;99.90;;;;;;5092136;28;20020;-43
2021/12/06 09:03:23;;;;;;;35.50;15.70;;;3.80;99.90;;;;;;5092464;28;20105;-44
2021/12/06 09:05:51;;;;;;;28.20;13.68;;;3.80;99.90;;;;;;5093239;28;20024;-44
2021/12/06 09:08:17;;;;;;;25.70;10.18;;;3.80;99.90;;;;;;5090082;28;20032;-44
2021/12/06 09:10:44;;;;;;;20.50;9.30;;;3.70;99.90;;;;;;5071995;28;20070;-42
2021/12/06 09:13:10;;;;;;;22.85;10.98;;;3.70;99.90;;;;;;5071945;28;20017;-43
2021/12/06 09:15:37;;;;;;;27.60;9.80;;;3.70;99.90;;;;;;5072550;28;20689;-42
2021/12/06 09:18:03;;;;;;;22.00;8.48;;;3.80;99.90;;;;;;5072582;28;20016;-43
2021/12/06 09:20:37;;;;;;;22.83;8.35;;;3.80;99.90;;;;;;5092399;28;20383;-43
2021/12/06 09:23:05;;;;;;;27.45;9.52;;;3.80;99.90;;;;;;5091106;28;20039;-45
2021/12/06 09:25:31;;;;;;;22.63;8.65;;;3.80;99.90;;;;;;5091954;28;20031;-44
2021/12/06 09:27:57;;;;;;;21.23;7.38;;;3.80;99.90;;;;;;5092303;28;20581;-43
2021/12/06 09:30:26;;;;;;;25.88;8.88;;;3.80;99.90;;;;;;5076429;28;20044;-44
2021/12/06 09:32:53;;;;;;;29.17;9.38;;;3.80;99.90;;;;;;5072011;28;20035;-43
2021/12/06 09:35:24;;;;;;;26.40;9.60;;;3.80;99.90;;;;;;5072275;28;20028;-43
2021/12/06 09:37:49;;;;;;;23.25;9.35;;;3.90;99.90;;;;;;5072477;28;20029;-43
2021/12/06 09:40:15;;;;;;;24.23;9.23;;;4.00;99.90;;;;;;5071423;28;20036;-44
2021/12/06 09:42:43;;;;;;;25.98;7.68;;;4.00;99.90;;;;;;5089305;28;20039;-43
2021/12/06 09:45:13;;;;;;;23.23;8.60;;;4.00;99.90;;;;;;5082312;28;20021;-44
2021/12/06 09:47:40;;;;;;;30.63;9.15;;;4.00;99.90;;;;;;5072280;28;20502;-43
2021/12/06 09:50:06;;;;;;;30.00;10.75;;;4.00;99.90;;;;;;5084281;28;20019;-42
2021/12/06 09:52:32;;;;;;;26.77;9.95;;;4.00;99.90;;;;;;5071898;28;20017;-42
2021/12/06 09:54:58;;;;;;;26.60;10.65;;;4.00;99.90;;;;;;5082863;28;20381;-42
2021/12/06 09:57:25;;;;;;;30.42;11.73;;;4.10;99.90;;;;;;5092249;28;20073;-42
2021/12/06 09:59:50;;;;;;;26.33;10.35;;;4.10;99.90;;;;;;5091986;28;20035;-42
2021/12/06 10:02:19;;;;;;;35.90;12.00;;;4.20;99.90;;;;;;5092133;28;20020;-42
2021/12/06 10:04:50;;;;;;;34.97;11.20;;;4.10;99.90;;;;;;5092409;28;20020;-42
2021/12/06 10:07:17;;;;;;;33.78;12.95;;;4.20;99.90;;;;;;5079547;28;20028;-43
2021/12/06 10:09:43;;;;;;;32.42;11.07;;;4.30;99.90;;;;;;5072241;28;20024;-43
2021/12/06 10:12:11;;;;;;;31.23;11.32;;;4.20;99.90;;;;;;5074449;28;20013;-44
2021/12/06 10:14:37;;;;;;;26.60;10.13;;;4.20;99.90;;;;;;5075587;28;20017;-43
2021/12/06 10:17:06;;;;;;;28.00;10.70;;;4.20;99.90;;;;;;5076184;28;20020;-43
2021/12/06 10:19:33;;;;;;;23.90;8.43;;;4.20;99.90;;;;;;5076185;28;20491;-45
2021/12/06 10:21:59;;;;;;;27.55;8.57;;;4.20;99.90;;;;;;5087761;28;20355;-44
2021/12/06 10:24:27;;;;;;;18.52;7.32;;;4.20;99.90;;;;;;5095465;28;20085;-44
2021/12/06 10:27:13;;;;;;;;;;;4.20;99.90;;;;;;5095699;28;20020;-42
2021/12/06 10:29:44;;;;;;;15.82;5.68;;;4.10;99.90;;;;;;5092904;28;19910;-42
2021/12/06 10:32:19;;;;;;;20.33;6.40;;;4.10;99.90;;;;;;5094605;28;20024;-42
2021/12/06 10:35:11;;;;;;;24.38;7.82;;;4.20;99.90;;;;;;5091735;28;20526;-43
2021/12/06 10:37:45;;;;;;;23.00;7.90;;;4.20;99.90;;;;;;5092833;28;20035;-44
2021/12/06 10:40:15;;;;;;;16.58;7.10;;;4.30;99.90;;;;;;5095206;28;20044;-44
2021/12/06 10:42:43;;;;;;;17.85;7.70;;;4.30;99.90;;;;;;5094727;28;20024;-43
2021/12/06 10:45:21;;;;;;;13.90;6.27;;;4.40;99.90;;;;;;5094204;28;20036;-44
2021/12/06 10:48:23;;;;;;;14.05;6.53;;;4.50;99.90;;;;;;5091442;28;20765;-43
2021/12/06 10:50:57;;;;;;;17.92;7.88;;;4.50;99.90;;;;;;5093933;28;20023;-43
2021/12/06 10:53:36;;;;;;;16.58;6.68;;;4.50;99.90;;;;;;5093483;28;20551;-43
2021/12/06 10:56:03;;;;;;;15.73;7.35;;;4.40;99.90;;;;;;5094970;28;20042;-43
2021/12/06 10:58:30;;;;;;;17.00;6.28;;;4.40;99.90;;;;;;5093558;28;20478;-42
2021/12/06 11:01:09;;;;;;;18.90;6.75;;;4.40;99.90;;;;;;5075425;28;20108;-44
2021/12/06 11:03:54;;;;;;;19.23;6.68;;;4.40;99.90;;;;;;5074804;28;20495;-43
2021/12/06 11:06:29;;;;;;;18.00;6.63;;;4.40;99.90;;;;;;5083415;28;20024;-43
2021/12/06 11:08:56;;;;;;;16.15;7.13;;;4.40;99.90;;;;;;5094537;28;20032;-42
2021/12/06 11:11:28;;;;;;;18.10;6.37;;;4.50;99.90;;;;;;5073723;28;20033;-42
2021/12/06 11:13:57;;;;;;;19.05;7.20;;;4.40;99.90;;;;;;5086912;28;20062;-42
2021/12/06 11:16:27;;;;;;;18.90;7.75;;;4.50;99.90;;;;;;5092148;28;20463;-44
2021/12/06 11:18:54;;;;;;;17.30;8.27;;;4.50;99.90;;;;;;5090364;28;20058;-43
2021/12/06 11:21:23;;;;;;;20.10;7.45;;;4.50;99.90;;;;;;5092314;28;20023;-42
2021/12/06 11:24:04;;;;;;;20.90;7.10;;;4.50;99.90;;;;;;5087543;28;20028;-42
2021/12/06 11:26:31;;;;;;;23.85;8.88;;;4.50;99.90;;;;;;5092143;28;20028;-43
2021/12/06 11:29:08;;;;;;;27.02;9.32;;;4.60;99.90;;;;;;5092902;28;20012;-44
2021/12/06 11:31:34;;;;;;;24.17;10.50;;;4.70;99.90;;;;;;5092630;28;20437;-43
2021/12/06 11:34:03;;;;;;;19.40;8.40;;;4.70;99.90;;;;;;5092880;28;20031;-44
2021/12/06 11:36:31;;;;;;;21.90;8.73;;;4.70;99.90;;;;;;5092679;28;20096;-42
2021/12/06 11:39:01;;;;;;;25.48;9.43;;;4.70;99.90;;;;;;5093086;28;20016;-42
2021/12/06 11:41:27;;;;;;;24.75;8.80;;;4.70;99.90;;;;;;5091135;28;20023;-42
2021/12/06 11:43:53;;;;;;;24.67;9.40;;;4.70;99.90;;;;;;5085831;28;20040;-43
2021/12/06 11:46:31;;;;;;;20.42;9.15;;;4.80;99.90;;;;;;5091705;28;20106;-44
2021/12/06 11:48:56;;;;;;;23.77;8.50;;;4.80;99.90;;;;;;5090483;28;20024;-44
2021/12/06 11:51:24;;;;;;;21.95;8.75;;;4.80;99.90;;;;;;5092281;28;20108;-43
2021/12/06 11:53:54;;;;;;;22.40;9.60;;;4.90;99.90;;;;;;5092310;28;20016;-45
2021/12/06 11:56:21;;;;;;;24.25;8.68;;;4.90;99.90;;;;;;5093089;28;20101;-42
2021/12/06 11:58:51;;;;;;;30.40;8.23;;;4.90;99.90;;;;;;5092624;28;20020;-43
2021/12/06 12:01:27;;;;;;;27.55;10.70;;;5.00;99.90;;;;;;5092623;28;20032;-43
2021/12/06 12:03:57;;;;;;;27.08;9.70;;;5.00;99.90;;;;;;5090714;28;20028;-42
2021/12/06 12:06:43;;;;;;;17.92;7.80;;;5.00;99.90;;;;;;5089573;28;20119;-44
2021/12/06 12:09:21;;;;;;;19.88;8.07;;;5.00;99.90;;;;;;5092030;28;20443;-42
2021/12/06 12:11:59;;;;;;;21.42;7.70;;;5.10;99.90;;;;;;5090166;28;20047;-44
2021/12/06 12:14:28;;;;;;;22.55;7.13;;;5.10;99.90;;;;;;5088493;28;20032;-44
2021/12/06 12:16:54;;;;;;;31.42;8.50;;;5.20;99.90;;;;;;5091943;28;20016;-42
2021/12/06 12:19:20;;;;;;;19.27;7.20;;;5.20;99.90;;;;;;5090685;28;20069;-43
2021/12/06 12:21:47;;;;;;;17.55;7.55;;;5.30;99.90;;;;;;5087536;28;20099;-42
2021/12/06 12:24:12;;;;;;;21.27;8.20;;;5.20;99.90;;;;;;5089461;28;20053;-42
2021/12/06 12:26:43;;;;;;;17.88;7.82;;;5.20;99.90;;;;;;5101576;28;20020;-42
2021/12/06 12:29:15;;;;;;;17.75;6.25;;;5.20;99.90;;;;;;5098693;28;20031;-43
2021/12/06 12:31:41;;;;;;;20.48;6.88;;;5.20;99.90;;;;;;5099850;28;20028;-43
2021/12/06 12:34:07;;;;;;;21.10;8.40;;;5.20;99.90;;;;;;5096146;28;20027;-45
2021/12/06 12:36:34;;;;;;;20.55;7.63;;;5.20;99.90;;;;;;5093493;28;20024;-43
2021/12/06 12:39:00;;;;;;;20.60;8.33;;;5.10;99.90;;;;;;5089459;28;20024;-43
2021/12/06 12:41:28;;;;;;;21.70;8.40;;;5.10;99.90;;;;;;5091481;28;20020;-43
2021/12/06 12:44:06;;;;;;;21.48;7.85;;;5.10;99.90;;;;;;5090846;28;20067;-44
2021/12/06 12:46:39;;;;;;;23.87;8.93;;;5.10;99.90;;;;;;5091956;28;20081;-43
2021/12/06 12:49:14;;;;;;;23.48;8.50;;;5.10;99.90;;;;;;5090864;28;20653;-42
2021/12/06 12:51:57;;;;;;;22.45;8.50;;;5.10;99.90;;;;;;5091864;28;20032;-43
2021/12/06 12:54:25;;;;;;;24.23;8.80;;;5.10;99.90;;;;;;5090168;28;20036;-42
2021/12/06 12:56:57;;;;;;;24.67;9.57;;;5.10;99.90;;;;;;5091224;28;20040;-43
2021/12/06 12:59:36;;;;;;;24.70;9.38;;;5.10;99.90;;;;;;5091656;28;20755;-44